Time;durP1;ratioP1;P1;durP2;ratioP2;P2;SDS_P1;SDS_P2;PMS_P1;PMS_P2;Temp;Humidity;BMP_temperature;BMP_pressure;BME280_temperature;BME280_humidity;BME280_pressure;Samples;Min_cycle;Max_cycle;Signal;HPM_P1;HPM_P2
2023/12/22 00:01:18;;;;;;;4.13;2.20;;;22.70;63.00;;;;;;5073888;28;20452;-88
2023/12/22 00:03:46;;;;;;;5.50;2.13;;;22.70;63.10;;;;;;5074085;28;20447;-87
2023/12/22 00:06:13;;;;;;;2.73;1.60;;;22.90;63.30;;;;;;5073882;28;20441;-88
2023/12/22 00:08:39;;;;;;;5.53;2.17;;;22.70;63.20;;;;;;5073728;28;20923;-87
2023/12/22 00:11:06;;;;;;;5.63;1.60;;;22.70;63.00;;;;;;5073627;28;20451;-87
2023/12/22 00:13:33;;;;;;;2.90;1.73;;;22.70;63.20;;;;;;5073445;28;20495;-87
2023/12/22 00:16:01;;;;;;;3.50;2.10;;;22.70;63.10;;;;;;5073511;28;20490;-88
2023/12/22 00:18:29;;;;;;;5.03;1.97;;;22.70;63.10;;;;;;5073641;28;20440;-87
2023/12/22 00:20:56;;;;;;;2.67;1.90;;;22.70;63.30;;;;;;5073524;28;20437;-88
2023/12/22 00:23:22;;;;;;;5.77;1.60;;;22.70;63.20;;;;;;5073581;28;20428;-87
2023/12/22 00:25:49;;;;;;;2.40;1.90;;;22.70;63.40;;;;;;5073372;28;20439;-88
2023/12/22 00:28:16;;;;;;;2.87;1.60;;;22.70;63.30;;;;;;5073449;28;20435;-88
2023/12/22 00:30:43;;;;;;;3.20;1.70;;;22.60;63.30;;;;;;5073441;28;20432;-87
2023/12/22 00:33:10;;;;;;;5.27;2.73;;;22.60;63.50;;;;;;5073181;28;20476;-87
2023/12/22 00:35:38;;;;;;;4.57;1.87;;;22.60;63.40;;;;;;5073331;28;20437;-87
2023/12/22 00:38:05;;;;;;;4.67;1.67;;;22.60;63.30;;;;;;5073235;28;20809;-88
2023/12/22 00:40:31;;;;;;;1.87;1.60;;;22.60;63.50;;;;;;5072737;28;20436;-86
2023/12/22 00:42:58;;;;;;;3.70;2.67;;;22.60;63.40;;;;;;5073271;28;20475;-86
2023/12/22 00:45:25;;;;;;;2.87;2.10;;;22.70;63.50;;;;;;5073479;28;20437;-89
2023/12/22 00:47:52;;;;;;;2.97;1.70;;;22.60;63.30;;;;;;5073487;28;20818;-87
2023/12/22 00:50:19;;;;;;;6.10;1.43;;;22.60;63.50;;;;;;5073236;28;20444;-87
2023/12/22 00:52:47;;;;;;;2.27;1.60;;;22.60;63.30;;;;;;5073610;28;20853;-87
2023/12/22 00:55:14;;;;;;;4.23;1.63;;;22.70;63.60;;;;;;5073002;28;20551;-87
2023/12/22 00:57:41;;;;;;;3.83;1.83;;;22.50;63.60;;;;;;5073209;28;20428;-87
2023/12/22 01:00:11;;;;;;;3.30;1.80;;;22.60;63.50;;;;;;5073350;28;20432;-87
2023/12/22 01:02:39;;;;;;;2.50;1.47;;;22.50;63.50;;;;;;5073489;28;20783;-87
2023/12/22 01:05:06;;;;;;;2.90;2.13;;;22.60;63.60;;;;;;5073073;28;20920;-87
2023/12/22 01:07:33;;;;;;;2.70;1.40;;;22.50;63.60;;;;;;5073084;28;20955;-87
2023/12/22 01:10:03;;;;;;;3.13;2.00;;;22.60;63.60;;;;;;5073423;28;20539;-87
2023/12/22 01:12:30;;;;;;;3.17;1.80;;;22.50;63.60;;;;;;5073063;28;20433;-86
2023/12/22 01:14:57;;;;;;;2.10;1.53;;;22.50;63.60;;;;;;5073328;28;20792;-87
2023/12/22 01:17:24;;;;;;;2.47;1.40;;;22.50;63.50;;;;;;5073278;28;20797;-87
2023/12/22 01:19:51;;;;;;;4.70;1.77;;;22.50;63.50;;;;;;5072863;28;20957;-87
2023/12/22 01:22:18;;;;;;;3.60;1.50;;;22.50;63.50;;;;;;5073128;28;20466;-87
2023/12/22 01:24:45;;;;;;;4.60;1.70;;;22.50;63.60;;;;;;5073172;28;20441;-87
2023/12/22 01:27:13;;;;;;;1.30;1.20;;;22.50;63.30;;;;;;5064414;28;20793;-87
2023/12/22 01:29:40;;;;;;;3.17;1.70;;;22.50;63.40;;;;;;5053133;28;20433;-87
2023/12/22 01:32:07;;;;;;;3.30;1.60;;;22.50;63.60;;;;;;5052909;28;20439;-87
2023/12/22 01:34:34;;;;;;;2.77;1.63;;;22.50;63.50;;;;;;5053075;28;20492;-91
2023/12/22 01:37:01;;;;;;;3.40;1.63;;;22.50;63.20;;;;;;5053088;28;20444;-94
2023/12/22 01:39:28;;;;;;;3.73;1.50;;;22.50;63.40;;;;;;5052658;28;20448;-87
2023/12/22 01:41:55;;;;;;;3.80;1.73;;;22.50;63.40;;;;;;5052517;28;20491;-87
2023/12/22 01:44:23;;;;;;;2.10;1.43;;;22.60;63.30;;;;;;5052753;28;20540;-87
2023/12/22 01:46:51;;;;;;;2.20;1.50;;;22.50;63.30;;;;;;5052995;28;20465;-88
2023/12/22 01:49:18;;;;;;;2.67;1.20;;;22.50;63.10;;;;;;5053039;28;20528;-86
2023/12/22 01:51:45;;;;;;;2.90;1.10;;;22.50;63.20;;;;;;5053784;28;20441;-87
2023/12/22 01:54:15;;;;;;;2.00;1.60;;;22.50;63.20;;;;;;5056412;28;20824;-87
2023/12/22 01:56:42;;;;;;;2.17;1.50;;;22.50;63.10;;;;;;5056938;28;20437;-87
2023/12/22 01:59:10;;;;;;;2.10;1.33;;;22.50;63.30;;;;;;5056575;28;20441;-93
2023/12/22 02:01:39;;;;;;;3.17;1.17;;;22.50;63.30;;;;;;5056602;28;20449;-88
2023/12/22 02:04:06;;;;;;;3.40;1.30;;;22.50;63.30;;;;;;5057409;28;20924;-93
2023/12/22 02:06:35;;;;;;;3.00;1.27;;;22.60;63.20;;;;;;5056907;28;20540;-93
2023/12/22 02:09:03;;;;;;;2.70;1.57;;;22.50;63.20;;;;;;5056969;28;20452;-91
2023/12/22 02:11:30;;;;;;;2.90;1.50;;;22.50;63.30;;;;;;5057715;28;20499;-93
2023/12/22 02:13:57;;;;;;;2.67;1.60;;;22.50;63.30;;;;;;5056617;28;20580;-92
2023/12/22 02:16:32;;;;;;;1.40;1.10;;;22.50;63.30;;;;;;5056883;28;20798;-93
2023/12/22 02:19:10;;;;;;;1.93;1.70;;;22.50;63.00;;;;;;5056567;28;20445;-93
2023/12/22 02:21:38;;;;;;;1.87;1.30;;;22.50;63.00;;;;;;5056726;28;20440;-90
2023/12/22 02:24:06;;;;;;;2.20;1.40;;;22.50;62.90;;;;;;5056613;28;20488;-93
2023/12/22 02:26:38;;;;;;;1.67;1.37;;;22.50;62.90;;;;;;5056573;28;20473;-93
2023/12/22 02:29:06;;;;;;;2.17;1.30;;;22.50;63.00;;;;;;5056438;28;20426;-94
2023/12/22 02:31:39;;;;;;;2.90;1.37;;;22.50;62.90;;;;;;5057091;28;20445;-91
2023/12/22 02:34:12;;;;;;;2.03;1.10;;;22.50;62.80;;;;;;5056264;28;20485;-89
2023/12/22 02:36:41;;;;;;;1.87;1.20;;;22.50;62.80;;;;;;5056713;28;20446;-91
2023/12/22 02:39:10;;;;;;;1.20;0.90;;;22.50;62.80;;;;;;5056288;28;20536;-91
2023/12/22 02:41:37;;;;;;;1.80;1.50;;;22.50;63.00;;;;;;5056311;28;20830;-87
2023/12/22 02:44:05;;;;;;;2.63;1.30;;;22.50;62.90;;;;;;5056213;28;20459;-94
2023/12/22 02:46:32;;;;;;;2.20;1.10;;;22.50;62.70;;;;;;5055888;28;20441;-94
2023/12/22 02:48:58;;;;;;;2.23;1.53;;;22.50;62.80;;;;;;5056079;28;20866;-93
2023/12/22 02:51:25;;;;;;;1.20;1.00;;;22.50;62.70;;;;;;5055978;28;20433;-94
2023/12/22 02:53:52;;;;;;;2.17;1.37;;;22.50;62.90;;;;;;5055630;28;20488;-94
2023/12/22 02:56:20;;;;;;;2.43;1.67;;;22.50;62.90;;;;;;5055750;28;20432;-94
2023/12/22 02:58:47;;;;;;;2.20;0.80;;;22.50;62.90;;;;;;5055734;28;20445;-95
2023/12/22 03:01:14;;;;;;;2.00;1.20;;;22.50;63.00;;;;;;5055997;28;20805;-93
2023/12/22 03:03:40;;;;;;;1.20;1.10;;;22.50;62.80;;;;;;5055183;28;20445;-93
2023/12/22 03:06:07;;;;;;;2.63;1.37;;;22.50;62.80;;;;;;5055532;28;20487;-94
2023/12/22 03:08:34;;;;;;;1.30;0.90;;;22.50;62.90;;;;;;5056035;28;20445;-93
2023/12/22 03:11:01;;;;;;;2.03;1.03;;;22.50;62.80;;;;;;5055347;28;20933;-94
2023/12/22 03:13:29;;;;;;;1.17;0.90;;;22.50;62.90;;;;;;5055190;28;20492;-94
2023/12/22 03:15:55;;;;;;;2.30;1.17;;;22.60;62.80;;;;;;5055518;28;20438;-93
2023/12/22 03:18:22;;;;;;;2.03;1.20;;;22.50;62.80;;;;;;5055237;28;20455;-92
2023/12/22 03:20:49;;;;;;;2.37;1.10;;;22.50;62.70;;;;;;5055105;28;20524;-94
2023/12/22 03:23:16;;;;;;;2.37;1.10;;;22.60;62.80;;;;;;5055042;28;20525;-94
2023/12/22 03:25:43;;;;;;;1.30;1.00;;;22.50;62.80;;;;;;5054717;28;20440;-93
2023/12/22 03:28:09;;;;;;;1.40;1.00;;;22.50;62.90;;;;;;5054832;28;20811;-93
2023/12/22 03:30:38;;;;;;;1.40;0.90;;;22.50;62.60;;;;;;5054777;28;20451;-93
2023/12/22 03:33:06;;;;;;;2.53;1.30;;;22.50;62.70;;;;;;5055124;28;20823;-91
2023/12/22 03:35:33;;;;;;;2.00;1.10;;;22.50;62.80;;;;;;5055292;28;20480;-88
2023/12/22 03:38:00;;;;;;;1.30;1.00;;;22.50;62.70;;;;;;5055208;28;20454;-94
2023/12/22 03:40:27;;;;;;;1.40;0.97;;;22.60;62.80;;;;;;5055311;28;20477;-93
2023/12/22 03:42:54;;;;;;;1.80;0.90;;;22.50;62.60;;;;;;5054933;28;20461;-88
2023/12/22 03:45:20;;;;;;;1.63;0.90;;;22.50;62.70;;;;;;5055271;28;20792;-93
2023/12/22 03:47:49;;;;;;;1.50;1.10;;;22.50;62.80;;;;;;5054905;28;20444;-95
2023/12/22 03:50:15;;;;;;;1.40;1.00;;;22.50;62.80;;;;;;5054902;28;20533;-93
2023/12/22 03:52:42;;;;;;;1.43;1.23;;;22.50;62.70;;;;;;5054727;28;20912;-93
2023/12/22 03:55:09;;;;;;;2.57;1.30;;;22.50;62.80;;;;;;5054332;28;20867;-95
2023/12/22 03:57:36;;;;;;;1.20;0.93;;;22.50;62.80;;;;;;5054797;28;20437;-94
2023/12/22 04:00:04;;;;;;;2.20;1.27;;;22.50;62.70;;;;;;5054636;28;20437;-92
2023/12/22 04:02:30;;;;;;;1.47;1.10;;;22.50;62.80;;;;;;5054787;28;20488;-94
2023/12/22 04:04:58;;;;;;;1.50;0.90;;;22.50;62.70;;;;;;5054405;28;20958;-90
2023/12/22 04:07:25;;;;;;;1.70;1.00;;;22.50;62.40;;;;;;5054707;28;20811;-92
2023/12/22 04:09:52;;;;;;;1.20;1.00;;;22.50;62.50;;;;;;5054622;28;20433;-93
2023/12/22 04:12:19;;;;;;;1.33;1.00;;;22.50;62.60;;;;;;5054373;28;20434;-94
2023/12/22 04:14:46;;;;;;;1.20;1.00;;;22.50;62.50;;;;;;5054004;28;20481;-94
2023/12/22 04:17:12;;;;;;;1.40;1.10;;;22.50;62.30;;;;;;5054306;28;20443;-94
2023/12/22 04:19:39;;;;;;;1.43;1.30;;;22.50;62.60;;;;;;5054166;28;20438;-87
2023/12/22 04:22:07;;;;;;;1.40;1.10;;;22.50;62.70;;;;;;5054078;28;20944;-94
2023/12/22 04:24:34;;;;;;;1.10;0.90;;;22.50;63.50;;;;;;5054095;28;20433;-93
2023/12/22 04:27:01;;;;;;;1.50;0.90;;;22.50;62.70;;;;;;5054209;28;20448;-94
2023/12/22 04:29:28;;;;;;;1.23;1.03;;;22.50;62.80;;;;;;5053983;28;20511;-91
2023/12/22 04:31:54;;;;;;;2.30;1.30;;;22.40;62.70;;;;;;5053965;28;20450;-94
2023/12/22 04:34:21;;;;;;;1.60;1.10;;;22.40;62.60;;;;;;5053743;28;21009;-93
2023/12/22 04:36:48;;;;;;;1.63;1.00;;;22.40;62.60;;;;;;5053858;28;20944;-93
2023/12/22 04:39:16;;;;;;;1.50;0.90;;;22.40;62.70;;;;;;5053858;28;20439;-88
2023/12/22 04:41:43;;;;;;;1.30;0.80;;;22.40;62.50;;;;;;5054150;28;20848;-95
2023/12/22 04:44:09;;;;;;;1.20;0.70;;;22.40;62.50;;;;;;5053579;28;20464;-94
2023/12/22 04:46:36;;;;;;;2.00;1.07;;;22.40;62.50;;;;;;5053874;28;20437;-94
2023/12/22 04:49:03;;;;;;;1.23;0.80;;;22.50;62.80;;;;;;5053819;28;20437;-94
2023/12/22 04:51:30;;;;;;;1.93;1.00;;;22.40;62.60;;;;;;5053645;28;20491;-94
2023/12/22 04:53:57;;;;;;;1.20;1.00;;;22.40;62.50;;;;;;5053360;28;20842;-94
2023/12/22 04:56:25;;;;;;;1.10;0.80;;;22.50;62.60;;;;;;5054060;28;20433;-94
2023/12/22 04:58:52;;;;;;;1.83;0.90;;;22.40;62.40;;;;;;5053818;28;20452;-95
2023/12/22 05:01:19;;;;;;;1.40;1.10;;;22.40;62.60;;;;;;5053644;28;20453;-92
2023/12/22 05:03:46;;;;;;;1.77;0.80;;;22.40;62.50;;;;;;5053582;28;20519;-94
2023/12/22 05:06:12;;;;;;;1.40;1.17;;;22.40;62.50;;;;;;5053549;28;20451;-94
2023/12/22 05:08:39;;;;;;;1.10;0.70;;;22.50;62.60;;;;;;5053566;28;20447;-94
2023/12/22 05:11:06;;;;;;;1.47;0.90;;;22.50;62.60;;;;;;5053494;28;21003;-93
2023/12/22 05:13:34;;;;;;;1.40;0.80;;;22.50;62.60;;;;;;5053443;28;20458;-88
2023/12/22 05:16:01;;;;;;;1.10;0.77;;;22.50;62.60;;;;;;5053231;28;21063;-89
2023/12/22 05:18:28;;;;;;;1.43;0.90;;;22.50;62.60;;;;;;5053077;28;20433;-94
2023/12/22 05:20:55;;;;;;;1.47;0.90;;;22.50;62.60;;;;;;5053370;28;20434;-90
2023/12/22 05:23:21;;;;;;;1.40;1.00;;;22.50;62.40;;;;;;5053220;28;20441;-90
2023/12/22 05:25:48;;;;;;;1.20;0.87;;;22.50;62.40;;;;;;5054860;28;20441;-91
2023/12/22 05:28:15;;;;;;;1.40;0.87;;;22.50;63.20;;;;;;5057525;28;20802;-93
2023/12/22 05:30:43;;;;;;;2.10;1.17;;;22.50;62.40;;;;;;5057436;28;20520;-94
2023/12/22 05:33:10;;;;;;;1.30;1.00;;;22.50;62.40;;;;;;5057232;28;20810;-94
2023/12/22 05:35:37;;;;;;;1.40;0.90;;;22.50;62.40;;;;;;5057176;28;20524;-93
2023/12/22 05:38:04;;;;;;;1.70;1.10;;;22.50;62.40;;;;;;5057094;28;21012;-94
2023/12/22 05:40:33;;;;;;;1.67;1.00;;;22.50;62.40;;;;;;5057240;28;20433;-93
2023/12/22 05:42:59;;;;;;;1.10;0.80;;;22.50;62.20;;;;;;5057126;28;20464;-88
2023/12/22 05:45:26;;;;;;;1.50;1.27;;;22.50;62.30;;;;;;5057236;28;20520;-94
2023/12/22 05:47:54;;;;;;;1.40;1.10;;;22.50;62.40;;;;;;5057234;28;20445;-94
2023/12/22 05:50:21;;;;;;;1.30;0.93;;;22.50;62.30;;;;;;5056912;28;20484;-92
2023/12/22 05:52:49;;;;;;;1.07;0.80;;;22.50;63.30;;;;;;5056755;28;21015;-93
2023/12/22 05:55:15;;;;;;;1.10;0.90;;;22.50;62.30;;;;;;5056416;28;20499;-92
2023/12/22 05:57:42;;;;;;;1.10;0.90;;;22.50;62.30;;;;;;5056620;28;20447;-92
2023/12/22 06:00:11;;;;;;;1.53;0.90;;;22.50;62.30;;;;;;5056652;28;20439;-93
2023/12/22 06:02:39;;;;;;;1.20;0.80;;;22.50;62.30;;;;;;5056825;28;20862;-91
2023/12/22 06:05:08;;;;;;;1.10;0.80;;;22.50;62.20;;;;;;5056724;28;20982;-87
2023/12/22 06:07:35;;;;;;;1.33;0.90;;;22.50;62.20;;;;;;5056700;28;20525;-95
2023/12/22 06:10:01;;;;;;;1.90;1.20;;;22.50;62.30;;;;;;5056416;28;20872;-93
2023/12/22 06:12:28;;;;;;;1.40;0.93;;;22.60;62.30;;;;;;5056599;28;20818;-87
2023/12/22 06:14:55;;;;;;;1.63;0.70;;;22.60;62.30;;;;;;5056135;28;20841;-95
2023/12/22 06:17:22;;;;;;;2.10;0.97;;;22.60;62.30;;;;;;5056556;28;20441;-87
2023/12/22 06:19:48;;;;;;;1.20;1.00;;;22.60;62.30;;;;;;5056062;28;20446;-87
2023/12/22 06:22:16;;;;;;;1.20;0.80;;;22.60;62.20;;;;;;5056357;28;20439;-88
2023/12/22 06:24:44;;;;;;;1.53;1.03;;;22.60;62.30;;;;;;5056222;28;20794;-87
2023/12/22 06:27:11;;;;;;;2.20;0.90;;;22.60;62.20;;;;;;5055952;28;20447;-87
2023/12/22 06:29:39;;;;;;;1.30;1.20;;;22.60;62.20;;;;;;5055964;28;20771;-93
2023/12/22 06:32:07;;;;;;;1.40;0.90;;;22.60;62.00;;;;;;5056025;28;20440;-94
2023/12/22 06:34:34;;;;;;;1.40;0.90;;;22.60;62.10;;;;;;5055898;28;20473;-87
2023/12/22 06:37:00;;;;;;;1.40;1.00;;;22.60;62.00;;;;;;5055074;28;20433;-87
2023/12/22 06:39:29;;;;;;;1.30;0.73;;;22.60;62.10;;;;;;5055761;28;20437;-88
2023/12/22 06:41:56;;;;;;;1.03;0.70;;;22.60;62.00;;;;;;5055925;28;20433;-89
2023/12/22 06:44:22;;;;;;;1.10;0.80;;;22.60;61.90;;;;;;5055489;28;20524;-95
2023/12/22 06:46:49;;;;;;;1.20;0.73;;;22.60;62.00;;;;;;5060949;28;20436;-87
2023/12/22 06:49:16;;;;;;;1.60;1.00;;;22.60;62.00;;;;;;5072218;28;20431;-95
2023/12/22 06:51:43;;;;;;;1.70;0.90;;;22.60;61.90;;;;;;5075950;28;20448;-93
2023/12/22 06:54:10;;;;;;;1.67;0.80;;;22.60;61.90;;;;;;5075443;28;20468;-94
2023/12/22 06:56:39;;;;;;;1.20;0.70;;;22.60;61.90;;;;;;5075603;28;20519;-93
2023/12/22 06:59:07;;;;;;;1.00;0.70;;;22.60;61.80;;;;;;5075562;28;20447;-87
2023/12/22 07:01:35;;;;;;;1.13;0.87;;;22.70;62.00;;;;;;5075040;28;20436;-86
2023/12/22 07:04:03;;;;;;;1.00;0.70;;;22.70;62.00;;;;;;5075141;28;20463;-87
2023/12/22 07:06:32;;;;;;;1.80;0.80;;;22.70;61.90;;;;;;5036937;28;20930;-94
2023/12/22 07:09:30;;;;;;;1.40;1.10;;;22.70;61.90;;;;;;5035980;28;20806;-94
2023/12/22 07:11:58;;;;;;;1.50;0.80;;;22.70;61.90;;;;;;5037294;28;20530;-92
2023/12/22 07:14:25;;;;;;;1.60;0.80;;;22.70;61.90;;;;;;5036152;28;20952;-92
2023/12/22 07:16:52;;;;;;;1.30;0.90;;;22.70;61.70;;;;;;5036661;28;20438;-91
2023/12/22 07:19:19;;;;;;;1.30;0.70;;;22.70;61.90;;;;;;5035753;28;20441;-92
2023/12/22 07:21:45;;;;;;;1.50;1.00;;;22.70;61.80;;;;;;5035648;28;20452;-93
2023/12/22 07:24:11;;;;;;;1.33;0.90;;;22.70;61.60;;;;;;5035730;28;20533;-94
2023/12/22 07:26:38;;;;;;;1.30;0.90;;;22.70;61.60;;;;;;5035456;28;20438;-93
2023/12/22 07:29:06;;;;;;;1.07;0.80;;;22.70;61.70;;;;;;5035552;28;20525;-95
2023/12/22 07:31:33;;;;;;;1.20;0.90;;;22.70;61.70;;;;;;5036370;28;20541;-95
2023/12/22 07:34:00;;;;;;;2.37;0.97;;;22.70;61.70;;;;;;5035520;28;20442;-95
2023/12/22 07:36:28;;;;;;;1.20;0.90;;;22.80;61.60;;;;;;5035453;28;20490;-93
2023/12/22 07:38:57;;;;;;;1.20;0.83;;;22.70;61.60;;;;;;5035471;28;20442;-95
2023/12/22 07:41:24;;;;;;;1.37;0.80;;;22.70;61.70;;;;;;5035500;28;20955;-96
2023/12/22 07:43:50;;;;;;;1.30;0.90;;;22.70;61.70;;;;;;5034984;28;20806;-95
2023/12/22 07:46:19;;;;;;;1.00;0.70;;;22.70;61.90;;;;;;5035282;28;20445;-96
2023/12/22 07:48:46;;;;;;;2.40;1.00;;;22.70;61.70;;;;;;5035321;28;20541;-92
2023/12/22 07:51:13;;;;;;;1.20;1.10;;;22.70;61.90;;;;;;5035073;28;20478;-91
2023/12/22 07:53:40;;;;;;;1.37;0.87;;;22.70;61.80;;;;;;5034708;28;20474;-91
2023/12/22 07:56:07;;;;;;;1.30;0.87;;;22.70;61.90;;;;;;5035138;28;20493;-87
2023/12/22 07:58:34;;;;;;;1.60;1.03;;;22.70;61.90;;;;;;5035407;28;20529;-96
2023/12/22 08:01:01;;;;;;;1.30;0.80;;;22.70;61.80;;;;;;5041432;28;20486;-84
2023/12/22 08:03:29;;;;;;;1.80;1.13;;;22.70;61.40;;;;;;5038803;28;20453;-92
2023/12/22 08:05:56;;;;;;;1.90;1.00;;;22.70;61.00;;;;;;5034718;28;20438;-96
2023/12/22 08:08:23;;;;;;;1.20;0.80;;;22.70;61.80;;;;;;5034848;28;20450;-93
2023/12/22 08:10:50;;;;;;;5.43;0.90;;;22.70;62.00;;;;;;5034571;28;20438;-94
2023/12/22 08:13:17;;;;;;;1.20;0.80;;;22.70;62.10;;;;;;5034859;28;20549;-96
2023/12/22 08:15:44;;;;;;;1.37;0.93;;;22.70;61.90;;;;;;5037210;28;20488;-96
2023/12/22 08:18:11;;;;;;;2.23;0.80;;;22.70;61.70;;;;;;5035048;28;20442;-96
2023/12/22 08:20:39;;;;;;;1.73;0.90;;;22.80;61.90;;;;;;5034767;28;20533;-91
2023/12/22 08:23:06;;;;;;;2.17;0.90;;;22.80;61.80;;;;;;5034899;28;20545;-96
2023/12/22 08:25:33;;;;;;;2.30;1.00;;;22.90;62.10;;;;;;5034801;28;20515;-96
2023/12/22 08:28:03;;;;;;;1.50;1.00;;;22.80;62.10;;;;;;5034727;28;20446;-92
2023/12/22 08:30:30;;;;;;;3.83;1.20;;;22.80;62.20;;;;;;5036567;28;20442;-95
2023/12/22 08:32:57;;;;;;;2.13;1.47;;;22.80;62.40;;;;;;5035223;28;20543;-95
2023/12/22 08:35:23;;;;;;;1.50;1.00;;;22.80;63.00;;;;;;5035237;28;20830;-96
2023/12/22 08:37:51;;;;;;;8.17;2.43;;;22.80;63.20;;;;;;5034885;28;20447;-96
2023/12/22 08:40:23;;;;;;;7.20;2.10;;;22.90;62.90;;;;;;5035110;28;20466;-88
2023/12/22 08:42:50;;;;;;;5.57;1.10;;;22.80;62.50;;;;;;5034956;28;20561;-92
2023/12/22 08:45:17;;;;;;;6.57;1.77;;;22.80;62.80;;;;;;5034765;28;20446;-96
2023/12/22 08:47:44;;;;;;;8.93;1.40;;;22.80;61.80;;;;;;5034678;28;20438;-96
2023/12/22 08:50:12;;;;;;;4.23;1.30;;;22.80;61.90;;;;;;5034236;28;20446;-95
2023/12/22 08:52:39;;;;;;;2.63;1.10;;;22.80;63.00;;;;;;5034353;28;20499;-86
2023/12/22 08:55:08;;;;;;;1.67;1.20;;;22.70;62.60;;;;;;5033960;28;20478;-95
2023/12/22 08:57:35;;;;;;;3.40;1.40;;;22.70;62.40;;;;;;5034590;28;20430;-96
2023/12/22 09:00:02;;;;;;;3.47;1.33;;;22.80;62.80;;;;;;5033694;28;20452;-96
2023/12/22 09:02:30;;;;;;;3.10;1.43;;;22.70;62.70;;;;;;5034425;28;20454;-92
2023/12/22 09:04:57;;;;;;;6.80;2.67;;;22.70;62.80;;;;;;5035007;28;20438;-86
2023/12/22 09:07:24;;;;;;;3.73;1.70;;;22.70;61.00;;;;;;5035251;28;20442;-88
2023/12/22 09:09:51;;;;;;;2.30;1.43;;;22.70;61.40;;;;;;5035641;28;20447;-90
2023/12/22 09:12:19;;;;;;;4.67;1.70;;;22.70;62.80;;;;;;5036027;28;20541;-96
2023/12/22 09:14:46;;;;;;;5.50;2.03;;;22.70;63.70;;;;;;5036776;28;20449;-85
2023/12/22 09:17:13;;;;;;;2.67;1.77;;;22.80;62.80;;;;;;5035954;28;20485;-96
2023/12/22 09:19:40;;;;;;;3.60;1.63;;;22.80;62.40;;;;;;5034363;28;20442;-96
2023/12/22 09:22:06;;;;;;;3.07;1.83;;;22.80;62.10;;;;;;5033883;28;20446;-96
2023/12/22 09:24:33;;;;;;;3.10;1.40;;;22.80;62.70;;;;;;5034061;28;20444;-95
2023/12/22 09:27:02;;;;;;;3.30;1.20;;;22.80;62.60;;;;;;5033817;28;20526;-89
2023/12/22 09:29:31;;;;;;;3.40;1.43;;;22.70;63.60;;;;;;5035085;28;20448;-89
2023/12/22 09:31:58;;;;;;;2.70;1.47;;;22.80;62.90;;;;;;5034056;28;20565;-86
2023/12/22 09:34:27;;;;;;;5.27;1.83;;;22.80;62.60;;;;;;5033716;28;20445;-85
2023/12/22 09:36:53;;;;;;;2.60;1.20;;;22.80;62.80;;;;;;5033503;28;20488;-85
2023/12/22 09:39:20;;;;;;;8.80;2.20;;;22.80;62.80;;;;;;5033613;28;20441;-89
2023/12/22 09:41:50;;;;;;;9.53;2.60;;;22.80;62.60;;;;;;5034172;28;20438;-91
2023/12/22 09:44:20;;;;;;;8.00;2.10;;;;;;;;;;5033758;28;20915;-84
2023/12/22 09:46:49;;;;;;;66.20;4.67;;;23.00;61.90;;;;;;5033800;28;20461;-87
2023/12/22 09:49:17;;;;;;;8.07;1.53;;;23.60;62.00;;;;;;5033383;28;20438;-80
2023/12/22 09:51:45;;;;;;;3.43;1.80;;;23.20;59.70;;;;;;5032907;28;20438;-81
2023/12/22 09:54:14;;;;;;;6.40;1.80;;;22.90;60.40;;;;;;5033036;28;20464;-83
2023/12/22 17:24:44;;;;;;;10.50;6.63;;;23.00;73.00;;;;;;5099859;23;20537;-96
2023/12/22 17:27:11;;;;;;;9.07;6.43;;;22.90;73.80;;;;;;5084728;28;20488;-95
2023/12/22 17:29:37;;;;;;;38.53;17.63;;;22.90;73.50;;;;;;5079235;28;20498;-93
2023/12/22 17:32:10;;;;;;;57.47;21.20;;;23.00;73.60;;;;;;5077794;28;20444;-92
2023/12/22 17:34:38;;;;;;;110.43;39.67;;;23.00;72.30;;;;;;5060728;28;20451;-93
2023/12/22 17:37:05;;;;;;;131.57;47.70;;;23.00;71.30;;;;;;5080261;28;20802;-92
2023/12/22 17:39:34;;;;;;;138.43;47.70;;;23.00;70.50;;;;;;5077490;28;20470;-91
2023/12/22 17:42:09;;;;;;;131.33;48.30;;;23.00;71.40;;;;;;5079717;28;20579;-90
2023/12/22 17:44:38;;;;;;;119.00;47.03;;;23.00;71.90;;;;;;5077867;28;20424;-95
2023/12/22 17:47:06;;;;;;;143.50;51.00;;;23.10;71.50;;;;;;5078264;28;20502;-93
2023/12/22 17:50:04;;;;;;;109.67;44.70;;;23.10;70.80;;;;;;5080881;28;20539;-93
2023/12/22 17:52:30;;;;;;;119.23;44.50;;;23.10;70.00;;;;;;5079809;28;20592;-90
2023/12/22 17:54:57;;;;;;;106.87;45.57;;;23.10;70.00;;;;;;5077344;28;20436;-92
2023/12/22 17:57:26;;;;;;;112.33;44.53;;;23.10;70.50;;;;;;5080122;28;20523;-92
2023/12/22 17:59:52;;;;;;;98.70;40.20;;;23.10;69.20;;;;;;5064417;28;20528;-90
2023/12/22 18:02:19;;;;;;;95.53;40.77;;;23.10;69.60;;;;;;5056998;28;20777;-91
2023/12/22 18:04:46;;;;;;;100.73;41.57;;;23.20;69.50;;;;;;5059237;28;20441;-96
2023/12/22 18:07:14;;;;;;;98.67;41.97;;;23.20;69.40;;;;;;5057175;28;20489;-92
2023/12/22 18:09:41;;;;;;;99.87;40.30;;;23.20;68.20;;;;;;5059897;28;20437;-93
2023/12/22 18:12:08;;;;;;;96.57;38.80;;;23.30;68.00;;;;;;5056962;28;20487;-90
2023/12/22 18:14:36;;;;;;;105.10;41.30;;;23.20;68.10;;;;;;5056928;28;20437;-94
2023/12/22 18:17:03;;;;;;;91.10;37.37;;;23.30;68.00;;;;;;5057118;28;20444;-90
2023/12/22 18:19:30;;;;;;;87.50;37.07;;;23.20;67.90;;;;;;5056170;28;20535;-88
2023/12/22 18:21:57;;;;;;;81.80;34.60;;;23.30;67.80;;;;;;5056688;28;20443;-89
2023/12/22 18:24:24;;;;;;;77.17;33.80;;;23.20;67.60;;;;;;5062294;28;21014;-89
2023/12/22 18:26:57;;;;;;;84.50;34.47;;;23.20;67.30;;;;;;5077055;28;20570;-88
2023/12/22 18:29:24;;;;;;;73.73;32.30;;;23.30;68.30;;;;;;5076182;28;20925;-89
2023/12/22 18:31:55;;;;;;;82.47;33.70;;;23.30;67.50;;;;;;5077116;28;20535;-89
2023/12/22 18:34:22;;;;;;;74.30;33.77;;;23.40;67.30;;;;;;5075190;28;20493;-89
2023/12/22 18:36:48;;;;;;;66.13;30.40;;;23.30;66.70;;;;;;5075688;28;20451;-87
2023/12/22 18:39:15;;;;;;;67.13;27.30;;;23.20;66.60;;;;;;5075797;28;20440;-88
2023/12/22 18:41:42;;;;;;;60.43;27.20;;;23.20;66.70;;;;;;5075767;28;20827;-88
2023/12/22 18:44:09;;;;;;;59.90;28.30;;;23.20;65.90;;;;;;5075798;28;20452;-90
2023/12/22 18:46:36;;;;;;;54.10;26.90;;;23.20;65.70;;;;;;5075351;28;20498;-88
2023/12/22 18:49:05;;;;;;;59.47;27.50;;;23.20;66.00;;;;;;5075612;28;20802;-89
2023/12/22 18:51:31;;;;;;;49.13;23.60;;;23.20;66.00;;;;;;5075923;28;20436;-90
2023/12/22 18:53:58;;;;;;;52.93;23.57;;;23.20;65.90;;;;;;5076176;28;20436;-89
2023/12/22 18:56:25;;;;;;;64.93;26.37;;;23.30;65.90;;;;;;5075690;28;20446;-89
2023/12/22 18:58:53;;;;;;;56.60;25.23;;;23.10;65.60;;;;;;5075451;28;20515;-88
2023/12/22 19:01:19;;;;;;;29.73;15.90;;;23.10;66.10;;;;;;5075905;28;20432;-89
2023/12/22 19:03:46;;;;;;;30.80;14.90;;;23.10;64.90;;;;;;5075680;28;20436;-90
2023/12/22 19:06:15;;;;;;;32.13;15.60;;;23.10;64.70;;;;;;5075451;28;20446;-93
2023/12/22 19:08:42;;;;;;;28.43;13.50;;;23.10;63.70;;;;;;5075905;28;20444;-92
2023/12/22 19:11:09;;;;;;;39.50;20.07;;;23.10;65.20;;;;;;5076716;28;20599;-93
2023/12/22 19:13:36;;;;;;;42.37;19.57;;;23.10;67.30;;;;;;5075561;28;20449;-94
2023/12/22 19:16:03;;;;;;;41.80;18.87;;;23.00;66.90;;;;;;5075727;28;20802;-93
2023/12/22 19:18:30;;;;;;;45.10;18.20;;;23.00;67.20;;;;;;5076883;28;20539;-94
2023/12/22 19:21:03;;;;;;;32.90;14.83;;;23.00;68.30;;;;;;5076633;28;20536;-95
2023/12/22 19:23:34;;;;;;;35.70;16.17;;;23.00;68.40;;;;;;5076683;28;20437;-96
2023/12/22 19:26:01;;;;;;;38.00;16.83;;;23.00;69.00;;;;;;5075332;28;20993;-95
2023/12/22 19:28:28;;;;;;;38.27;16.77;;;23.00;68.20;;;;;;5075698;28;20894;-94
2023/12/22 19:30:55;;;;;;;33.93;15.33;;;22.90;69.20;;;;;;5075270;28;20494;-96
2023/12/22 19:33:22;;;;;;;30.97;15.80;;;23.00;69.30;;;;;;5077378;28;20513;-94
2023/12/22 19:35:49;;;;;;;35.30;16.07;;;22.90;70.40;;;;;;5075576;28;20437;-95
2023/12/22 19:38:23;;;;;;;34.30;15.20;;;23.10;71.40;;;;;;5076301;28;20453;-94
2023/12/22 19:40:51;;;;;;;32.07;15.57;;;22.90;70.60;;;;;;5076221;28;20472;-95
2023/12/22 19:43:22;;;;;;;28.30;15.60;;;23.00;71.40;;;;;;5075940;28;20866;-96
2023/12/22 19:45:51;;;;;;;36.20;14.90;;;23.00;69.60;;;;;;5078409;28;20440;-96
2023/12/22 19:48:19;;;;;;;27.90;15.23;;;22.90;70.90;;;;;;5078156;28;20570;-96
2023/12/22 19:50:46;;;;;;;31.27;14.83;;;22.90;69.90;;;;;;5078336;28;20472;-96
2023/12/22 19:53:14;;;;;;;28.73;14.00;;;23.00;70.40;;;;;;5084178;28;20445;-96
2023/12/22 19:55:42;;;;;;;21.43;12.70;;;23.00;70.60;;;;;;5076658;28;20477;-96
2023/12/22 19:58:10;;;;;;;24.73;13.20;;;23.00;69.80;;;;;;5082588;28;20498;-96
2023/12/22 20:04:06;;;;;;;25.00;11.97;;;22.90;70.00;;;;;;5033861;28;20511;-96
2023/12/22 20:06:35;;;;;;;24.10;12.50;;;22.90;69.80;;;;;;5060433;28;20440;-96
2023/12/22 20:11:57;;;;;;;20.70;10.53;;;22.90;70.60;;;;;;5075155;22;20863;-94
2023/12/22 20:14:25;;;;;;;25.83;12.40;;;23.00;70.00;;;;;;5075321;28;20440;-95
2023/12/22 20:16:52;;;;;;;28.67;13.43;;;23.00;71.40;;;;;;5075162;28;20459;-94
2023/12/22 20:19:20;;;;;;;19.77;11.17;;;22.90;70.30;;;;;;5074937;28;20494;-96